sensor_id;sensor_type;location;lat;lon;timestamp;pressure;altitude;pressure_sealevel;temperature;humidity
31761;BME280;18335;51.486;7.562;2023-04-09T00:01:00;101194.09;;;4.42;100.00
31761;BME280;18335;51.486;7.562;2023-04-09T00:03:27;101194.72;;;4.33;100.00
31761;BME280;18335;51.486;7.562;2023-04-09T00:05:54;101194.72;;;4.33;100.00
31761;BME280;18335;51.486;7.562;2023-04-09T00:08:22;101192.28;;;4.16;100.00
31761;BME280;18335;51.486;7.562;2023-04-09T00:10:49;101187.28;;;4.10;100.00
31761;BME280;18335;51.486;7.562;2023-04-09T00:13:16;101194.81;;;4.05;100.00
31761;BME280;18335;51.486;7.562;2023-04-09T00:15:43;101191.81;;;4.10;100.00
31761;BME280;18335;51.486;7.562;2023-04-09T00:18:10;101191.09;;;3.94;100.00
31761;BME280;18335;51.486;7.562;2023-04-09T00:20:37;101190.28;;;3.79;100.00
31761;BME280;18335;51.486;7.562;2023-04-09T00:23:04;101192.56;;;3.85;100.00
31761;BME280;18335;51.486;7.562;2023-04-09T00:25:32;101189.69;;;3.74;100.00
31761;BME280;18335;51.486;7.562;2023-04-09T00:27:59;101198.56;;;3.76;100.00
31761;BME280;18335;51.486;7.562;2023-04-09T00:30:27;101186.53;;;3.67;100.00
31761;BME280;18335;51.486;7.562;2023-04-09T00:32:54;101194.31;;;3.72;100.00
31761;BME280;18335;51.486;7.562;2023-04-09T00:35:21;101184.28;;;3.74;100.00
31761;BME280;18335;51.486;7.562;2023-04-09T00:37:48;101187.97;;;3.73;100.00
31761;BME280;18335;51.486;7.562;2023-04-09T00:40:15;101184.09;;;3.77;100.00
31761;BME280;18335;51.486;7.562;2023-04-09T00:42:43;101186.94;;;3.61;100.00
31761;BME280;18335;51.486;7.562;2023-04-09T00:45:10;101185.47;;;3.70;100.00
31761;BME280;18335;51.486;7.562;2023-04-09T00:47:37;101178.88;;;3.74;100.00
31761;BME280;18335;51.486;7.562;2023-04-09T00:50:04;101178.53;;;3.66;100.00
31761;BME280;18335;51.486;7.562;2023-04-09T00:52:31;101183.34;;;3.47;100.00
31761;BME280;18335;51.486;7.562;2023-04-09T00:54:59;101188.47;;;3.51;100.00
31761;BME280;18335;51.486;7.562;2023-04-09T00:57:26;101171.97;;;3.56;100.00
31761;BME280;18335;51.486;7.562;2023-04-09T00:59:55;101183.75;;;3.41;100.00
31761;BME280;18335;51.486;7.562;2023-04-09T01:02:22;101185.00;;;3.35;100.00
31761;BME280;18335;51.486;7.562;2023-04-09T01:04:49;101176.03;;;3.34;100.00
31761;BME280;18335;51.486;7.562;2023-04-09T01:07:30;101181.44;;;3.34;100.00
31761;BME280;18335;51.486;7.562;2023-04-09T01:10:07;101184.63;;;3.27;100.00
31761;BME280;18335;51.486;7.562;2023-04-09T01:12:44;101183.09;;;3.37;100.00
31761;BME280;18335;51.486;7.562;2023-04-09T01:15:19;101180.69;;;3.18;100.00
31761;BME280;18335;51.486;7.562;2023-04-09T01:17:52;101184.50;;;3.14;100.00
31761;BME280;18335;51.486;7.562;2023-04-09T01:20:28;101180.88;;;3.15;100.00
31761;BME280;18335;51.486;7.562;2023-04-09T01:23:04;101184.91;;;3.08;100.00
31761;BME280;18335;51.486;7.562;2023-04-09T01:25:43;101185.50;;;3.13;100.00
31761;BME280;18335;51.486;7.562;2023-04-09T01:28:17;101186.44;;;3.12;100.00
31761;BME280;18335;51.486;7.562;2023-04-09T01:30:48;101188.56;;;3.07;100.00
31761;BME280;18335;51.486;7.562;2023-04-09T01:33:16;101185.84;;;2.93;100.00
31761;BME280;18335;51.486;7.562;2023-04-09T01:35:46;101185.66;;;2.96;100.00
31761;BME280;18335;51.486;7.562;2023-04-09T01:38:15;101182.69;;;3.01;100.00
31761;BME280;18335;51.486;7.562;2023-04-09T01:40:44;101188.66;;;2.92;100.00
31761;BME280;18335;51.486;7.562;2023-04-09T01:43:11;101185.66;;;2.96;100.00
31761;BME280;18335;51.486;7.562;2023-04-09T01:45:41;101181.06;;;3.12;100.00
31761;BME280;18335;51.486;7.562;2023-04-09T01:48:09;101186.16;;;3.03;100.00
31761;BME280;18335;51.486;7.562;2023-04-09T01:50:36;101176.25;;;3.03;100.00
31761;BME280;18335;51.486;7.562;2023-04-09T01:53:03;101174.50;;;3.02;100.00
31761;BME280;18335;51.486;7.562;2023-04-09T01:55:30;101176.63;;;3.11;100.00
31761;BME280;18335;51.486;7.562;2023-04-09T01:57:57;101171.41;;;2.94;100.00
31761;BME280;18335;51.486;7.562;2023-04-09T02:00:30;101182.06;;;2.82;100.00
31761;BME280;18335;51.486;7.562;2023-04-09T02:03:05;101181.19;;;2.81;100.00
31761;BME280;18335;51.486;7.562;2023-04-09T02:05:36;101185.00;;;2.63;100.00
31761;BME280;18335;51.486;7.562;2023-04-09T02:08:06;101186.41;;;2.84;100.00
31761;BME280;18335;51.486;7.562;2023-04-09T02:10:34;101181.19;;;2.81;100.00
31761;BME280;18335;51.486;7.562;2023-04-09T02:13:04;101191.50;;;2.74;100.00
31761;BME280;18335;51.486;7.562;2023-04-09T02:15:34;101184.63;;;2.69;100.00
31761;BME280;18335;51.486;7.562;2023-04-09T02:18:03;101189.22;;;2.83;100.00
31761;BME280;18335;51.486;7.562;2023-04-09T02:20:30;101178.94;;;2.89;100.00
31761;BME280;18335;51.486;7.562;2023-04-09T02:22:56;101177.88;;;2.92;100.00
31761;BME280;18335;51.486;7.562;2023-04-09T02:25:23;101180.19;;;2.98;100.00
31761;BME280;18335;51.486;7.562;2023-04-09T02:27:51;101182.56;;;2.88;100.00
31761;BME280;18335;51.486;7.562;2023-04-09T02:30:18;101184.88;;;2.80;100.00
31761;BME280;18335;51.486;7.562;2023-04-09T02:32:44;101181.19;;;2.81;100.00
31761;BME280;18335;51.486;7.562;2023-04-09T02:35:12;101167.97;;;2.92;100.00
31761;BME280;18335;51.486;7.562;2023-04-09T02:37:40;101167.28;;;2.89;100.00
31761;BME280;18335;51.486;7.562;2023-04-09T02:40:07;101167.72;;;2.81;100.00
31761;BME280;18335;51.486;7.562;2023-04-09T02:42:34;101166.41;;;2.88;100.00
31761;BME280;18335;51.486;7.562;2023-04-09T02:45:00;101162.75;;;2.89;100.00
31761;BME280;18335;51.486;7.562;2023-04-09T02:47:31;101158.13;;;2.77;100.00
31761;BME280;18335;51.486;7.562;2023-04-09T02:49:57;101160.56;;;2.66;100.00
31761;BME280;18335;51.486;7.562;2023-04-09T02:52:26;101155.88;;;2.69;100.00
31761;BME280;18335;51.486;7.562;2023-04-09T02:54:53;101160.47;;;2.53;100.00
31761;BME280;18335;51.486;7.562;2023-04-09T02:57:20;101155.63;;;2.44;100.00
31761;BME280;18335;51.486;7.562;2023-04-09T02:59:47;101157.47;;;2.58;100.00
31761;BME280;18335;51.486;7.562;2023-04-09T03:02:13;101151.41;;;2.54;100.00
31761;BME280;18335;51.486;7.562;2023-04-09T03:04:40;101150.47;;;2.55;100.00
31761;BME280;18335;51.486;7.562;2023-04-09T03:07:07;101162.09;;;2.56;100.00
31761;BME280;18335;51.486;7.562;2023-04-09T03:09:35;101156.50;;;2.45;100.00
31761;BME280;18335;51.486;7.562;2023-04-09T03:12:01;101156.06;;;2.37;100.00
31761;BME280;18335;51.486;7.562;2023-04-09T03:14:28;101150.53;;;2.24;100.00
31761;BME280;18335;51.486;7.562;2023-04-09T03:16:55;101153.22;;;2.24;100.00
31761;BME280;18335;51.486;7.562;2023-04-09T03:19:22;101152.97;;;2.29;100.00
31761;BME280;18335;51.486;7.562;2023-04-09T03:21:48;101141.84;;;2.05;100.00
31761;BME280;18335;51.486;7.562;2023-04-09T03:24:19;101141.13;;;2.01;100.00
31761;BME280;18335;51.486;7.562;2023-04-09T03:26:48;101138.19;;;2.06;100.00
31761;BME280;18335;51.486;7.562;2023-04-09T03:29:15;101143.69;;;2.18;100.00
31761;BME280;18335;51.486;7.562;2023-04-09T03:31:43;101138.13;;;2.21;100.00
31761;BME280;18335;51.486;7.562;2023-04-09T03:34:09;101136.88;;;1.97;100.00
31761;BME280;18335;51.486;7.562;2023-04-09T03:36:36;101136.13;;;1.95;100.00
31761;BME280;18335;51.486;7.562;2023-04-09T03:39:09;101138.03;;;2.09;100.00
31761;BME280;18335;51.486;7.562;2023-04-09T03:41:39;101132.00;;;2.04;100.00
31761;BME280;18335;51.486;7.562;2023-04-09T03:44:11;101133.00;;;2.03;100.00
31761;BME280;18335;51.486;7.562;2023-04-09T03:46:56;101131.44;;;1.99;100.00
31761;BME280;18335;51.486;7.562;2023-04-09T03:49:24;101125.53;;;1.92;100.00
31761;BME280;18335;51.486;7.562;2023-04-09T03:51:52;101129.78;;;1.96;100.00
31761;BME280;18335;51.486;7.562;2023-04-09T03:54:19;101123.78;;;1.91;100.00
31761;BME280;18335;51.486;7.562;2023-04-09T03:56:46;101121.88;;;1.93;100.00
31761;BME280;18335;51.486;7.562;2023-04-09T03:59:21;101127.44;;;1.90;100.00
31761;BME280;18335;51.486;7.562;2023-04-09T04:01:48;101126.66;;;1.88;100.00
31761;BME280;18335;51.486;7.562;2023-04-09T04:04:15;101125.22;;;1.67;100.00
31761;BME280;18335;51.486;7.562;2023-04-09T04:06:46;101130.75;;;1.80;100.00
31761;BME280;18335;51.486;7.562;2023-04-09T04:09:24;101129.03;;;1.79;100.00
31761;BME280;18335;51.486;7.562;2023-04-09T04:11:54;101130.59;;;1.67;100.00
31761;BME280;18335;51.486;7.562;2023-04-09T04:14:28;101130.09;;;1.76;100.00
31761;BME280;18335;51.486;7.562;2023-04-09T04:17:02;101134.66;;;1.74;100.00
31761;BME280;18335;51.486;7.562;2023-04-09T04:19:30;101127.28;;;1.78;100.00
31761;BME280;18335;51.486;7.562;2023-04-09T04:21:57;101131.91;;;1.76;100.00
31761;BME280;18335;51.486;7.562;2023-04-09T04:24:24;101127.47;;;1.59;100.00
31761;BME280;18335;51.486;7.562;2023-04-09T04:26:51;101128.50;;;1.56;100.00
31761;BME280;18335;51.486;7.562;2023-04-09T04:29:19;101132.66;;;1.62;100.00
31761;BME280;18335;51.486;7.562;2023-04-09T04:31:55;101136.59;;;1.56;100.00
31761;BME280;18335;51.486;7.562;2023-04-09T04:34:24;101135.09;;;1.51;100.00
31761;BME280;18335;51.486;7.562;2023-04-09T04:36:59;101129.56;;;1.54;100.00
31761;BME280;18335;51.486;7.562;2023-04-09T04:39:29;101142.38;;;1.64;100.00
31761;BME280;18335;51.486;7.562;2023-04-09T04:42:01;101140.50;;;1.51;100.00
31761;BME280;18335;51.486;7.562;2023-04-09T04:44:28;101139.44;;;1.69;100.00
31761;BME280;18335;51.486;7.562;2023-04-09T04:47:11;101143.88;;;1.70;100.00
31761;BME280;18335;51.486;7.562;2023-04-09T04:49:37;101143.88;;;1.70;100.00
31761;BME280;18335;51.486;7.562;2023-04-09T04:52:05;101142.59;;;1.46;100.00
31761;BME280;18335;51.486;7.562;2023-04-09T04:54:33;101141.59;;;1.47;100.00
31761;BME280;18335;51.486;7.562;2023-04-09T04:57:00;101146.63;;;1.53;100.00
31761;BME280;18335;51.486;7.562;2023-04-09T04:59:35;101145.53;;;1.57;100.00
31761;BME280;18335;51.486;7.562;2023-04-09T05:02:04;101133.53;;;1.47;100.00
31761;BME280;18335;51.486;7.562;2023-04-09T05:04:39;101139.69;;;1.64;100.00
31761;BME280;18335;51.486;7.562;2023-04-09T05:07:10;101140.56;;;1.65;100.00
31761;BME280;18335;51.486;7.562;2023-04-09T05:09:44;101143.00;;;1.54;100.00
31761;BME280;18335;51.486;7.562;2023-04-09T05:12:11;101141.38;;;1.51;100.00
31761;BME280;18335;51.486;7.562;2023-04-09T05:14:39;101144.59;;;1.58;100.00
31761;BME280;18335;51.486;7.562;2023-04-09T05:17:07;101143.09;;;1.68;100.00
31761;BME280;18335;51.486;7.562;2023-04-09T05:19:49;101141.78;;;1.75;100.00
31761;BME280;18335;51.486;7.562;2023-04-09T05:22:17;101142.56;;;1.77;100.00
31761;BME280;18335;51.486;7.562;2023-04-09T05:24:45;101137.97;;;1.48;100.00
31761;BME280;18335;51.486;7.562;2023-04-09T05:27:13;101138.75;;;1.81;100.00
31761;BME280;18335;51.486;7.562;2023-04-09T05:29:40;101139.09;;;1.91;100.00
31761;BME280;18335;51.486;7.562;2023-04-09T05:32:07;101147.00;;;1.94;100.00
31761;BME280;18335;51.486;7.562;2023-04-09T05:34:37;101150.78;;;1.90;100.00
31761;BME280;18335;51.486;7.562;2023-04-09T05:37:05;101149.75;;;1.92;100.00
31761;BME280;18335;51.486;7.562;2023-04-09T05:39:33;101150.31;;;2.13;100.00
31761;BME280;18335;51.486;7.562;2023-04-09T05:42:00;101149.06;;;2.34;100.00
31761;BME280;18335;51.486;7.562;2023-04-09T05:44:31;101159.09;;;2.46;100.00
31761;BME280;18335;51.486;7.562;2023-04-09T05:47:04;101150.56;;;2.54;100.00
31761;BME280;18335;51.486;7.562;2023-04-09T05:49:40;101150.84;;;2.63;100.00
31761;BME280;18335;51.486;7.562;2023-04-09T05:52:13;101153.97;;;2.71;100.00
31761;BME280;18335;51.486;7.562;2023-04-09T05:54:40;101150.09;;;2.75;100.00
31761;BME280;18335;51.486;7.562;2023-04-09T05:57:08;101152.16;;;2.86;100.00
31761;BME280;18335;51.486;7.562;2023-04-09T05:59:38;101152.16;;;2.86;100.00
31761;BME280;18335;51.486;7.562;2023-04-09T06:02:05;101157.94;;;2.94;100.00
31761;BME280;18335;51.486;7.562;2023-04-09T06:04:32;101152.53;;;3.08;100.00
31761;BME280;18335;51.486;7.562;2023-04-09T06:06:59;101155.66;;;3.16;100.00
31761;BME280;18335;51.486;7.562;2023-04-09T06:09:27;101159.59;;;3.25;100.00
31761;BME280;18335;51.486;7.562;2023-04-09T06:11:54;101155.06;;;3.40;100.00
31761;BME280;18335;51.486;7.562;2023-04-09T06:14:21;101146.75;;;3.43;100.00
31761;BME280;18335;51.486;7.562;2023-04-09T06:16:48;101149.16;;;3.61;100.00
31761;BME280;18335;51.486;7.562;2023-04-09T06:19:15;101153.72;;;3.73;100.00
31761;BME280;18335;51.486;7.562;2023-04-09T06:21:42;101156.97;;;3.92;100.00
31761;BME280;18335;51.486;7.562;2023-04-09T06:24:08;101154.00;;;4.10;100.00
31761;BME280;18335;51.486;7.562;2023-04-09T06:26:36;101160.41;;;4.21;100.00
31761;BME280;18335;51.486;7.562;2023-04-09T06:29:03;101150.53;;;4.34;100.00
31761;BME280;18335;51.486;7.562;2023-04-09T06:31:30;101157.06;;;4.44;100.00
31761;BME280;18335;51.486;7.562;2023-04-09T06:33:57;101157.84;;;4.59;100.00
31761;BME280;18335;51.486;7.562;2023-04-09T06:36:24;101152.56;;;4.83;100.00
31761;BME280;18335;51.486;7.562;2023-04-09T06:38:51;101153.00;;;4.89;100.00
31761;BME280;18335;51.486;7.562;2023-04-09T06:41:19;101151.81;;;4.93;100.00
31761;BME280;18335;51.486;7.562;2023-04-09T06:43:47;101149.19;;;5.17;100.00
31761;BME280;18335;51.486;7.562;2023-04-09T06:46:14;101154.94;;;5.25;100.00
31761;BME280;18335;51.486;7.562;2023-04-09T06:48:44;101155.25;;;5.33;100.00
31761;BME280;18335;51.486;7.562;2023-04-09T06:51:11;101154.47;;;5.44;100.00
31761;BME280;18335;51.486;7.562;2023-04-09T06:53:39;101150.66;;;5.59;100.00
31761;BME280;18335;51.486;7.562;2023-04-09T06:56:06;101150.53;;;5.73;100.00
31761;BME280;18335;51.486;7.562;2023-04-09T06:58:33;101154.72;;;5.90;100.00
31761;BME280;18335;51.486;7.562;2023-04-09T07:01:01;101158.59;;;5.98;100.00
31761;BME280;18335;51.486;7.562;2023-04-09T07:03:28;101158.19;;;6.16;100.00
31761;BME280;18335;51.486;7.562;2023-04-09T07:05:54;101160.34;;;6.23;100.00
31761;BME280;18335;51.486;7.562;2023-04-09T07:08:22;101159.06;;;6.40;100.00
31761;BME280;18335;51.486;7.562;2023-04-09T07:10:49;101154.19;;;6.56;100.00
31761;BME280;18335;51.486;7.562;2023-04-09T07:13:16;101161.72;;;6.63;100.00
31761;BME280;18335;51.486;7.562;2023-04-09T07:15:43;101152.69;;;6.87;100.00
31761;BME280;18335;51.486;7.562;2023-04-09T07:18:11;101152.69;;;6.87;100.00
31761;BME280;18335;51.486;7.562;2023-04-09T07:20:37;101150.63;;;7.01;100.00
31761;BME280;18335;51.486;7.562;2023-04-09T07:23:04;101164.69;;;7.06;100.00
31761;BME280;18335;51.486;7.562;2023-04-09T07:25:31;101161.00;;;7.30;100.00
31761;BME280;18335;51.486;7.562;2023-04-09T07:27:58;101163.63;;;7.42;100.00
31761;BME280;18335;51.486;7.562;2023-04-09T07:30:25;101154.97;;;7.48;100.00
31761;BME280;18335;51.486;7.562;2023-04-09T07:32:51;101160.03;;;7.64;100.00
31761;BME280;18335;51.486;7.562;2023-04-09T07:35:20;101161.38;;;7.80;100.00
31761;BME280;18335;51.486;7.562;2023-04-09T07:37:46;101167.44;;;7.73;100.00
31761;BME280;18335;51.486;7.562;2023-04-09T07:40:13;101169.84;;;7.98;100.00
31761;BME280;18335;51.486;7.562;2023-04-09T07:42:40;101171.19;;;8.15;100.00
31761;BME280;18335;51.486;7.562;2023-04-09T07:45:07;101172.66;;;8.30;100.00
31761;BME280;18335;51.486;7.562;2023-04-09T07:47:34;101167.69;;;8.35;100.00
31761;BME280;18335;51.486;7.562;2023-04-09T07:50:01;101164.50;;;8.30;100.00
31761;BME280;18335;51.486;7.562;2023-04-09T07:52:29;101163.13;;;8.36;100.00
31761;BME280;18335;51.486;7.562;2023-04-09T07:54:56;101157.44;;;8.39;100.00
31761;BME280;18335;51.486;7.562;2023-04-09T07:57:23;101162.75;;;8.61;100.00
31761;BME280;18335;51.486;7.562;2023-04-09T07:59:51;101158.09;;;8.83;100.00
31761;BME280;18335;51.486;7.562;2023-04-09T08:02:19;101157.56;;;8.89;100.00
31761;BME280;18335;51.486;7.562;2023-04-09T08:04:47;101162.31;;;9.18;100.00
31761;BME280;18335;51.486;7.562;2023-04-09T08:07:14;101163.06;;;9.20;100.00
31761;BME280;18335;51.486;7.562;2023-04-09T08:09:42;101153.75;;;9.22;100.00
31761;BME280;18335;51.486;7.562;2023-04-09T08:12:08;101151.69;;;9.15;100.00
31761;BME280;18335;51.486;7.562;2023-04-09T08:14:35;101144.81;;;9.41;100.00
31761;BME280;18335;51.486;7.562;2023-04-09T08:17:03;101150.72;;;9.46;100.00
31761;BME280;18335;51.486;7.562;2023-04-09T08:19:30;101148.06;;;9.56;100.00
31761;BME280;18335;51.486;7.562;2023-04-09T08:21:57;101143.03;;;9.61;100.00
31761;BME280;18335;51.486;7.562;2023-04-09T08:24:23;101145.34;;;9.65;100.00
31761;BME280;18335;51.486;7.562;2023-04-09T08:26:51;101149.81;;;9.66;100.00
31761;BME280;18335;51.486;7.562;2023-04-09T08:29:18;101152.06;;;9.91;100.00
31761;BME280;18335;51.486;7.562;2023-04-09T08:31:45;101153.44;;;9.86;100.00
31761;BME280;18335;51.486;7.562;2023-04-09T08:34:12;101144.03;;;9.99;100.00
31761;BME280;18335;51.486;7.562;2023-04-09T08:36:40;101146.09;;;10.17;100.00
31761;BME280;18335;51.486;7.562;2023-04-09T08:39:11;101147.69;;;10.29;100.00
31761;BME280;18335;51.486;7.562;2023-04-09T08:41:41;101149.00;;;10.44;100.00
31761;BME280;18335;51.486;7.562;2023-04-09T08:44:09;101154.59;;;10.42;100.00
31761;BME280;18335;51.486;7.562;2023-04-09T08:46:36;101163.81;;;10.51;100.00
31761;BME280;18335;51.486;7.562;2023-04-09T08:49:03;101153.16;;;10.38;100.00
31761;BME280;18335;51.486;7.562;2023-04-09T08:51:29;101151.59;;;10.55;100.00
31761;BME280;18335;51.486;7.562;2023-04-09T08:53:58;101150.72;;;10.64;100.00
31761;BME280;18335;51.486;7.562;2023-04-09T08:56:26;101149.59;;;10.57;100.00
31761;BME280;18335;51.486;7.562;2023-04-09T08:58:54;101145.66;;;11.07;100.00
31761;BME280;18335;51.486;7.562;2023-04-09T09:01:23;101147.28;;;10.72;100.00
31761;BME280;18335;51.486;7.562;2023-04-09T09:03:52;101147.13;;;10.83;100.00
31761;BME280;18335;51.486;7.562;2023-04-09T09:06:21;101141.09;;;10.79;100.00
31761;BME280;18335;51.486;7.562;2023-04-09T09:08:58;101140.09;;;10.80;100.00
31761;BME280;18335;51.486;7.562;2023-04-09T09:11:25;101143.25;;;10.85;100.00
31761;BME280;18335;51.486;7.562;2023-04-09T09:13:56;101146.25;;;11.01;100.00
31761;BME280;18335;51.486;7.562;2023-04-09T09:16:24;101140.22;;;11.44;100.00
31761;BME280;18335;51.486;7.562;2023-04-09T09:18:52;101143.59;;;11.75;100.00
31761;BME280;18335;51.486;7.562;2023-04-09T09:21:20;101144.34;;;11.95;100.00
31761;BME280;18335;51.486;7.562;2023-04-09T09:23:47;101137.34;;;12.10;100.00
31761;BME280;18335;51.486;7.562;2023-04-09T09:26:16;101131.09;;;12.00;100.00
31761;BME280;18335;51.486;7.562;2023-04-09T09:28:44;101133.53;;;11.76;100.00
31761;BME280;18335;51.486;7.562;2023-04-09T09:31:11;101134.22;;;12.05;100.00
31761;BME280;18335;51.486;7.562;2023-04-09T09:33:39;101130.00;;;11.83;100.00
31761;BME280;18335;51.486;7.562;2023-04-09T09:36:07;101132.13;;;12.34;100.00
31761;BME280;18335;51.486;7.562;2023-04-09T09:38:50;101124.78;;;12.52;100.00
31761;BME280;18335;51.486;7.562;2023-04-09T09:41:18;101126.13;;;12.66;100.00
31761;BME280;18335;51.486;7.562;2023-04-09T09:43:45;101124.63;;;12.89;100.00
31761;BME280;18335;51.486;7.562;2023-04-09T09:46:12;101117.53;;;13.04;100.00
31761;BME280;18335;51.486;7.562;2023-04-09T09:48:40;101114.41;;;12.99;100.00
31761;BME280;18335;51.486;7.562;2023-04-09T09:51:08;101118.13;;;13.42;100.00
31761;BME280;18335;51.486;7.562;2023-04-09T09:53:36;101107.31;;;13.66;100.00
31761;BME280;18335;51.486;7.562;2023-04-09T09:56:04;101108.16;;;13.66;100.00
31761;BME280;18335;51.486;7.562;2023-04-09T09:58:35;101103.22;;;13.36;100.00
31761;BME280;18335;51.486;7.562;2023-04-09T10:01:06;101112.81;;;13.14;100.00
31761;BME280;18335;51.486;7.562;2023-04-09T10:03:34;101097.66;;;13.54;100.00
31761;BME280;18335;51.486;7.562;2023-04-09T10:06:03;101098.47;;;13.46;100.00
31761;BME280;18335;51.486;7.562;2023-04-09T10:08:32;101101.03;;;13.14;100.00
31761;BME280;18335;51.486;7.562;2023-04-09T10:11:00;101093.41;;;13.25;100.00
31761;BME280;18335;51.486;7.562;2023-04-09T10:13:29;101093.06;;;13.28;100.00
31761;BME280;18335;51.486;7.562;2023-04-09T10:15:59;101095.03;;;13.44;100.00
31761;BME280;18335;51.486;7.562;2023-04-09T10:18:27;101087.81;;;13.77;100.00
31761;BME280;18335;51.486;7.562;2023-04-09T10:20:57;101082.25;;;14.19;100.00
31761;BME280;18335;51.486;7.562;2023-04-09T10:23:32;101084.56;;;14.39;100.00
31761;BME280;18335;51.486;7.562;2023-04-09T10:26:00;101077.69;;;14.27;100.00
31761;BME280;18335;51.486;7.562;2023-04-09T10:28:27;101072.50;;;14.16;100.00
31761;BME280;18335;51.486;7.562;2023-04-09T10:30:54;101077.56;;;13.95;100.00
31761;BME280;18335;51.486;7.562;2023-04-09T10:33:23;101069.31;;;13.79;100.00
31761;BME280;18335;51.486;7.562;2023-04-09T10:35:51;101070.34;;;13.86;100.00
31761;BME280;18335;51.486;7.562;2023-04-09T10:38:33;101071.81;;;14.22;100.00
31761;BME280;18335;51.486;7.562;2023-04-09T10:41:13;101065.19;;;13.83;100.00
31761;BME280;18335;51.486;7.562;2023-04-09T10:43:41;101063.16;;;13.85;100.00
31761;BME280;18335;51.486;7.562;2023-04-09T10:46:26;101060.88;;;14.30;100.00
31761;BME280;18335;51.486;7.562;2023-04-09T10:49:09;101062.28;;;14.51;100.00
31761;BME280;18335;51.486;7.562;2023-04-09T10:51:38;101050.53;;;14.16;100.00
31761;BME280;18335;51.486;7.562;2023-04-09T10:54:39;101063.06;;;14.19;100.00
31761;BME280;18335;51.486;7.562;2023-04-09T10:57:12;101052.78;;;14.29;100.00
31761;BME280;18335;51.486;7.562;2023-04-09T10:59:40;101049.91;;;14.79;100.00
31761;BME280;18335;51.486;7.562;2023-04-09T11:02:08;101047.84;;;14.73;100.00
31761;BME280;18335;51.486;7.562;2023-04-09T11:04:44;101044.75;;;14.44;100.00
31761;BME280;18335;51.486;7.562;2023-04-09T11:07:16;101053.22;;;13.84;100.00
31761;BME280;18335;51.486;7.562;2023-04-09T11:09:46;101051.78;;;13.72;100.00
31761;BME280;18335;51.486;7.562;2023-04-09T11:12:13;101050.56;;;13.66;100.00
31761;BME280;18335;51.486;7.562;2023-04-09T11:14:39;101045.53;;;14.04;100.00
31761;BME280;18335;51.486;7.562;2023-04-09T11:17:06;101037.84;;;14.31;100.00
31761;BME280;18335;51.486;7.562;2023-04-09T11:19:34;101046.38;;;13.88;100.00
31761;BME280;18335;51.486;7.562;2023-04-09T11:22:02;101031.06;;;13.77;100.00
31761;BME280;18335;51.486;7.562;2023-04-09T11:24:39;101039.22;;;14.03;100.00
31761;BME280;18335;51.486;7.562;2023-04-09T11:27:07;101035.00;;;14.33;100.00
31761;BME280;18335;51.486;7.562;2023-04-09T11:29:34;101042.66;;;14.21;100.00
31761;BME280;18335;51.486;7.562;2023-04-09T11:32:01;101033.44;;;14.55;100.00
31761;BME280;18335;51.486;7.562;2023-04-09T11:34:29;101023.47;;;14.46;100.00
31761;BME280;18335;51.486;7.562;2023-04-09T11:36:56;101023.09;;;14.97;99.17
31761;BME280;18335;51.486;7.562;2023-04-09T11:39:24;101025.22;;;15.50;99.43
31761;BME280;18335;51.486;7.562;2023-04-09T11:41:51;101019.88;;;15.40;93.85
31761;BME280;18335;51.486;7.562;2023-04-09T11:44:19;101013.72;;;15.30;100.00
31761;BME280;18335;51.486;7.562;2023-04-09T11:46:46;101015.94;;;15.35;88.33
31761;BME280;18335;51.486;7.562;2023-04-09T11:49:14;101017.44;;;15.54;94.03
31761;BME280;18335;51.486;7.562;2023-04-09T11:51:41;101018.09;;;15.94;96.19
31761;BME280;18335;51.486;7.562;2023-04-09T11:54:10;101014.94;;;15.28;95.23
31761;BME280;18335;51.486;7.562;2023-04-09T11:56:37;101026.38;;;14.76;97.41
31761;BME280;18335;51.486;7.562;2023-04-09T11:59:04;101018.19;;;14.36;98.21
31761;BME280;18335;51.486;7.562;2023-04-09T12:01:32;101019.69;;;14.30;95.10
31761;BME280;18335;51.486;7.562;2023-04-09T12:03:59;101018.00;;;14.62;98.79
31761;BME280;18335;51.486;7.562;2023-04-09T12:06:27;101018.34;;;14.75;95.75
31761;BME280;18335;51.486;7.562;2023-04-09T12:08:55;101016.25;;;14.28;95.49
31761;BME280;18335;51.486;7.562;2023-04-09T12:11:26;101018.31;;;14.18;95.93
31761;BME280;18335;51.486;7.562;2023-04-09T12:13:57;101015.03;;;14.31;100.00
31761;BME280;18335;51.486;7.562;2023-04-09T12:16:24;101013.56;;;14.36;100.00
31761;BME280;18335;51.486;7.562;2023-04-09T12:18:52;101012.84;;;14.59;100.00
31761;BME280;18335;51.486;7.562;2023-04-09T12:21:23;101015.56;;;14.18;99.34
31761;BME280;18335;51.486;7.562;2023-04-09T12:23:50;101011.75;;;14.19;99.54
31761;BME280;18335;51.486;7.562;2023-04-09T12:26:17;101012.69;;;14.44;98.19
31761;BME280;18335;51.486;7.562;2023-04-09T12:28:43;101006.94;;;15.02;99.94
31761;BME280;18335;51.486;7.562;2023-04-09T12:31:10;101000.81;;;14.84;95.26
31761;BME280;18335;51.486;7.562;2023-04-09T12:33:37;101010.06;;;14.18;97.36
31761;BME280;18335;51.486;7.562;2023-04-09T12:36:06;101002.72;;;14.43;95.87
31761;BME280;18335;51.486;7.562;2023-04-09T12:38:33;100997.03;;;14.77;97.85
31761;BME280;18335;51.486;7.562;2023-04-09T12:41:00;100999.59;;;14.86;98.22
31761;BME280;18335;51.486;7.562;2023-04-09T12:43:26;100997.66;;;15.11;92.78
31761;BME280;18335;51.486;7.562;2023-04-09T12:45:53;100993.44;;;15.23;95.57
31761;BME280;18335;51.486;7.562;2023-04-09T12:48:20;100995.03;;;15.26;100.00
31761;BME280;18335;51.486;7.562;2023-04-09T12:50:46;100996.16;;;14.76;92.40
31761;BME280;18335;51.486;7.562;2023-04-09T12:53:14;100991.31;;;14.94;88.54
31761;BME280;18335;51.486;7.562;2023-04-09T12:55:41;100992.31;;;15.10;94.17